createdAt,value
2023-04-26T00:03:22.645Z,6.90
2023-04-26T00:08:19.220Z,7.00
2023-04-26T00:10:47.187Z,7.00
2023-04-26T00:15:42.469Z,6.90
2023-04-26T00:23:09.832Z,7.00
2023-04-26T00:25:37.924Z,6.70
2023-04-26T00:28:05.704Z,6.90
2023-04-26T00:30:36.894Z,6.80
2023-04-26T00:35:32.481Z,7.00
2023-04-26T00:38:00.264Z,6.80
2023-04-26T00:40:28.097Z,7.00
2023-04-26T00:42:58.761Z,6.90
2023-04-26T00:45:27.173Z,7.00
2023-04-26T00:50:23.047Z,6.80
2023-04-26T00:52:51.317Z,6.80
2023-04-26T00:57:48.069Z,7.10
2023-04-26T01:05:12.105Z,6.90
2023-04-26T01:07:40.528Z,6.80
2023-04-26T01:12:38.113Z,6.70
2023-04-26T01:17:36.948Z,6.60
2023-04-26T01:20:09.158Z,6.60
2023-04-26T01:22:36.914Z,6.60
2023-04-26T01:25:08.615Z,6.50
2023-04-26T01:27:36.390Z,6.60
2023-04-26T01:30:05.468Z,6.60
2023-04-26T01:35:01.443Z,6.60
2023-04-26T01:37:29.113Z,6.70
2023-04-26T01:47:40.075Z,6.50
2023-04-26T01:55:07.746Z,6.40
2023-04-26T02:00:04.609Z,6.30
2023-04-26T02:04:59.958Z,6.30
2023-04-26T02:07:27.782Z,6.00
2023-04-26T02:12:23.731Z,6.50
2023-04-26T02:14:51.444Z,6.30
2023-04-26T02:17:20.594Z,6.30
2023-04-26T02:22:16.821Z,6.00
2023-04-26T02:32:12.771Z,6.10
2023-04-26T02:34:41.108Z,6.10
2023-04-26T02:42:04.727Z,6.10
2023-04-26T02:44:32.448Z,5.60
2023-04-26T02:56:51.400Z,5.40
2023-04-26T02:59:19.085Z,6.10
2023-04-26T03:01:46.856Z,5.90
2023-04-26T03:06:43.533Z,5.90
2023-04-26T03:19:27.936Z,5.30
2023-04-26T03:21:56.302Z,5.50
2023-04-26T03:24:24.069Z,5.40
2023-04-26T03:26:52.148Z,5.40
2023-04-26T03:31:47.852Z,5.30
2023-04-26T03:34:15.900Z,5.30
2023-04-26T03:36:43.707Z,5.10
2023-04-26T03:41:39.784Z,5.30
2023-04-26T03:44:07.524Z,5.10
2023-04-26T03:46:35.378Z,5.50
2023-04-26T03:49:03.108Z,5.00
2023-04-26T03:56:27.196Z,5.10
2023-04-26T03:58:55.110Z,5.40
2023-04-26T04:01:23.277Z,5.20
2023-04-26T04:03:51.147Z,5.10
2023-04-26T04:08:46.578Z,5.10
2023-04-26T04:11:15.389Z,5.10
2023-04-26T04:13:44.081Z,5.50
2023-04-26T04:16:11.867Z,5.50
2023-04-26T04:18:39.713Z,5.40
2023-04-26T04:21:07.583Z,5.50
2023-04-26T04:23:35.347Z,5.30
2023-04-26T04:26:03.060Z,5.50
2023-04-26T04:31:18.149Z,5.40
2023-04-26T04:33:45.848Z,5.40
2023-04-26T04:36:16.064Z,5.20
2023-04-26T04:38:44.570Z,5.20
2023-04-26T04:41:12.294Z,5.20
2023-04-26T04:43:40.084Z,5.10
2023-04-26T04:46:09.148Z,5.40
2023-04-26T04:48:38.443Z,5.40
2023-04-26T04:56:02.073Z,5.40
2023-04-26T04:58:29.957Z,5.30
2023-04-26T05:01:00.416Z,5.40
2023-04-26T05:03:28.328Z,5.60
2023-04-26T05:05:56.646Z,5.50
2023-04-26T05:08:24.452Z,5.80
2023-04-26T05:10:52.760Z,5.80
2023-04-26T05:13:20.470Z,5.50
2023-04-26T05:15:48.721Z,5.70
2023-04-26T05:20:43.983Z,5.70
2023-04-26T05:23:11.672Z,5.80
2023-04-26T05:25:39.436Z,5.80
2023-04-26T05:28:12.000Z,5.80
2023-04-26T05:30:40.197Z,6.10
2023-04-26T05:33:08.007Z,5.80
2023-04-26T05:35:36.279Z,5.90
2023-04-26T05:38:04.480Z,5.80
2023-04-26T05:43:19.040Z,5.80
2023-04-26T05:45:51.888Z,5.80
2023-04-26T05:48:21.794Z,5.90
2023-04-26T05:50:50.293Z,5.90
2023-04-26T05:53:18.850Z,5.80
2023-04-26T05:55:47.137Z,6.00
2023-04-26T05:58:15.047Z,5.70
2023-04-26T06:00:42.863Z,5.90
2023-04-26T06:03:10.919Z,6.00
2023-04-26T06:05:38.984Z,6.00
2023-04-26T06:08:07.383Z,6.10
2023-04-26T06:10:36.718Z,6.10
2023-04-26T06:13:04.482Z,6.10
2023-04-26T06:15:32.279Z,6.20
2023-04-26T06:18:00.121Z,6.20
2023-04-26T06:20:27.961Z,6.30
2023-04-26T06:25:45.086Z,6.50
2023-04-26T06:28:12.950Z,6.50
2023-04-26T06:30:41.331Z,6.50
2023-04-26T06:35:58.757Z,6.50
2023-04-26T06:38:26.632Z,6.70
2023-04-26T06:40:54.490Z,6.70
2023-04-26T06:45:50.187Z,6.70
2023-04-26T06:50:45.655Z,6.90
2023-04-26T06:53:13.881Z,7.00
2023-04-26T06:55:41.716Z,7.10
2023-04-26T06:58:10.136Z,7.20
2023-04-26T07:00:38.032Z,7.10
2023-04-26T07:03:06.699Z,7.00
2023-04-26T07:05:34.842Z,7.10
2023-04-26T07:10:31.112Z,7.40
2023-04-26T07:12:58.869Z,7.40
2023-04-26T07:15:26.777Z,7.40
2023-04-26T07:20:23.485Z,7.20
2023-04-26T07:22:51.207Z,7.60
2023-04-26T07:25:19.421Z,7.70
2023-04-26T07:27:47.488Z,7.60
2023-04-26T07:32:43.393Z,7.60
2023-04-26T07:37:58.589Z,7.70
2023-04-26T07:40:28.606Z,7.90
2023-04-26T07:42:56.472Z,7.80
2023-04-26T07:45:24.460Z,7.80
2023-04-26T07:47:52.646Z,7.90
2023-04-26T07:50:20.941Z,7.90
2023-04-26T07:55:17.629Z,7.70
2023-04-26T08:02:45.979Z,7.70
2023-04-26T08:05:14.998Z,7.90
2023-04-26T08:07:43.647Z,7.50
2023-04-26T08:10:12.189Z,8.00
2023-04-26T08:15:10.809Z,7.80
2023-04-26T08:17:38.655Z,7.80
2023-04-26T08:25:24.330Z,7.70
2023-04-26T08:27:52.562Z,8.00
2023-04-26T08:30:21.043Z,7.80
2023-04-26T08:32:49.885Z,7.70
2023-04-26T08:35:18.094Z,8.00
2023-04-26T08:37:45.873Z,8.30
2023-04-26T08:40:14.088Z,8.10
2023-04-26T08:42:43.688Z,8.00
2023-04-26T08:45:11.847Z,8.10
2023-04-26T08:47:44.341Z,7.90
2023-04-26T08:52:58.922Z,8.00
2023-04-26T08:55:28.220Z,8.00
2023-04-26T08:57:56.764Z,7.90
2023-04-26T09:00:25.438Z,7.90
2023-04-26T09:07:53.363Z,8.00
2023-04-26T09:10:22.098Z,8.10
2023-04-26T09:12:53.049Z,8.00
2023-04-26T09:19:19.147Z,8.40
2023-04-26T09:22:41.783Z,8.50
2023-04-26T09:29:08.911Z,8.60
2023-04-26T09:32:31.266Z,8.60
2023-04-26T09:35:53.713Z,8.70
2023-04-26T09:39:16.461Z,8.70
2023-04-26T09:48:47.912Z,8.60
2023-04-26T09:52:10.741Z,8.50
2023-04-26T09:55:35.522Z,8.60
2023-04-26T09:58:58.830Z,8.60
2023-04-26T10:02:21.410Z,8.60
2023-04-26T10:05:44.117Z,4.00
2023-04-26T10:09:06.658Z,8.70
2023-04-26T10:15:33.387Z,8.70
2023-04-26T10:18:56.204Z,8.70
2023-04-26T10:22:18.911Z,8.80
2023-04-26T10:25:41.544Z,8.70
2023-04-26T10:29:04.715Z,8.90
2023-04-26T10:32:27.766Z,9.00
2023-04-26T10:35:50.542Z,9.10
2023-04-26T10:39:13.319Z,9.30
2023-04-26T10:42:36.100Z,9.00
2023-04-26T10:45:58.981Z,8.90
2023-04-26T10:49:21.502Z,8.80
2023-04-26T10:52:44.137Z,8.70
2023-04-26T10:56:07.307Z,8.60
2023-04-26T10:59:43.212Z,8.90
2023-04-26T11:03:10.298Z,8.90
2023-04-26T11:06:32.875Z,8.90
2023-04-26T11:09:55.180Z,8.90
2023-04-26T11:13:17.725Z,9.00
2023-04-26T11:15:46.086Z,9.10
2023-04-26T11:18:14.074Z,9.20
2023-04-26T11:20:41.900Z,9.50
2023-04-26T11:23:10.080Z,9.10
2023-04-26T11:25:39.715Z,9.40
2023-04-26T11:28:07.689Z,9.40
2023-04-26T11:30:35.781Z,9.20
2023-04-26T11:33:04.349Z,9.40
2023-04-26T11:38:24.425Z,9.40
2023-04-26T11:40:57.197Z,9.10
2023-04-26T11:46:21.213Z,9.10
2023-04-26T11:48:49.320Z,9.40
2023-04-26T11:51:18.792Z,9.20
2023-04-26T11:56:18.345Z,9.30
2023-04-26T11:58:47.926Z,9.20
2023-04-26T12:01:22.836Z,9.30
2023-04-26T12:03:54.976Z,9.30
2023-04-26T12:06:32.103Z,9.30
2023-04-26T12:09:04.709Z,9.00
2023-04-26T12:11:32.671Z,9.30
2023-04-26T12:14:00.828Z,9.20
2023-04-26T12:16:28.930Z,9.30
2023-04-26T12:18:57.489Z,8.80
2023-04-26T12:21:30.374Z,9.30
2023-04-26T12:23:59.071Z,9.20
2023-04-26T12:26:43.572Z,9.10
2023-04-26T12:29:11.520Z,9.00
2023-04-26T12:31:40.179Z,8.80
2023-04-26T12:34:08.078Z,9.00
2023-04-26T12:36:35.968Z,9.00
2023-04-26T12:39:04.712Z,8.90
2023-04-26T12:41:33.094Z,8.90
2023-04-26T12:44:21.914Z,8.70
2023-04-26T12:49:18.514Z,8.90
2023-04-26T12:51:46.683Z,9.00
2023-04-26T12:54:14.797Z,9.20
2023-04-26T12:56:44.474Z,9.10
2023-04-26T12:59:12.729Z,8.90
2023-04-26T13:01:40.783Z,9.00
2023-04-26T13:04:09.412Z,9.00
2023-04-26T13:06:37.546Z,9.00
2023-04-26T13:09:07.364Z,9.10
2023-04-26T13:11:35.362Z,8.70
2023-04-26T13:14:03.446Z,8.80
2023-04-26T13:16:32.292Z,9.30
2023-04-26T13:21:29.081Z,9.50
2023-04-26T13:23:57.027Z,9.70
2023-04-26T13:26:27.531Z,9.70
2023-04-26T13:28:56.602Z,9.80
2023-04-26T13:31:24.794Z,9.90
2023-04-26T13:33:53.199Z,9.90
2023-04-26T13:36:21.686Z,9.90
2023-04-26T13:38:49.618Z,10.00
2023-04-26T13:41:17.569Z,9.90
2023-04-26T13:43:45.624Z,9.90
2023-04-26T13:46:13.837Z,9.90
2023-04-26T13:48:43.055Z,9.90
2023-04-26T13:51:11.290Z,9.90
2023-04-26T13:53:39.279Z,9.80
2023-04-26T13:56:09.033Z,9.90
2023-04-26T13:58:37.342Z,9.80
2023-04-26T14:01:05.528Z,9.80
2023-04-26T14:03:34.309Z,10.80
2023-04-26T14:08:51.303Z,11.90
2023-04-26T14:11:19.400Z,12.20
2023-04-26T14:13:47.350Z,12.10
2023-04-26T14:16:16.570Z,12.00
2023-04-26T14:18:44.643Z,11.30
2023-04-26T14:21:12.708Z,11.40
2023-04-26T14:23:41.492Z,10.70
2023-04-26T14:26:10.423Z,10.70
2023-04-26T14:28:38.529Z,10.60
2023-04-26T14:31:06.752Z,15.10
2023-04-26T14:33:35.284Z,10.40
2023-04-26T14:38:50.611Z,10.50
2023-04-26T14:41:19.822Z,10.40
2023-04-26T14:43:48.442Z,10.30
2023-04-26T14:46:16.440Z,10.40
2023-04-26T14:48:45.080Z,10.30
2023-04-26T14:51:13.533Z,10.50
2023-04-26T14:53:41.618Z,10.30
2023-04-26T14:56:09.498Z,10.60
2023-04-26T14:58:37.489Z,10.50
2023-04-26T15:01:05.799Z,10.70
2023-04-26T15:03:33.969Z,10.90
2023-04-26T15:06:02.084Z,11.00
2023-04-26T15:10:57.619Z,10.80
2023-04-26T15:13:25.677Z,10.80
2023-04-26T15:30:40.086Z,10.50
2023-04-26T15:40:32.423Z,10.30
2023-04-26T15:47:56.458Z,8.30
2023-04-26T15:50:24.654Z,10.30
2023-04-26T16:00:36.477Z,10.20
2023-04-26T16:43:26.673Z,10.20
2023-04-26T17:36:02.312Z,10.10
2023-04-26T18:38:00.261Z,9.60
2023-04-26T19:40:11.710Z,9.50
2023-04-26T20:17:31.611Z,9.20
2023-04-26T20:29:50.929Z,9.30
2023-04-26T20:32:19.273Z,9.20
2023-04-26T20:59:51.408Z,9.10
2023-04-26T21:22:05.044Z,9.00
2023-04-26T21:29:29.021Z,7.30
2023-04-26T22:04:05.534Z,8.80
